sensor_id;sensor_type;location;lat;lon;timestamp;pressure;altitude;pressure_sealevel;temperature;humidity
24230;BME280;12362;50.004;8.006;2024-01-25T00:01:08;101741.28;;;9.08;100.00
24230;BME280;12362;50.004;8.006;2024-01-25T00:03:33;101732.66;;;9.07;100.00
24230;BME280;12362;50.004;8.006;2024-01-25T00:05:59;101722.94;;;9.17;100.00
24230;BME280;12362;50.004;8.006;2024-01-25T00:08:25;101715.91;;;9.23;100.00
24230;BME280;12362;50.004;8.006;2024-01-25T00:10:50;101721.03;;;9.25;100.00
24230;BME280;12362;50.004;8.006;2024-01-25T00:13:16;101711.53;;;9.25;100.00
24230;BME280;12362;50.004;8.006;2024-01-25T00:15:42;101711.59;;;9.22;100.00
24230;BME280;12362;50.004;8.006;2024-01-25T00:18:07;101710.88;;;9.16;100.00
24230;BME280;12362;50.004;8.006;2024-01-25T00:20:32;101709.94;;;9.20;100.00
24230;BME280;12362;50.004;8.006;2024-01-25T00:22:58;101708.97;;;9.24;100.00
24230;BME280;12362;50.004;8.006;2024-01-25T00:25:24;101710.53;;;9.31;100.00
24230;BME280;12362;50.004;8.006;2024-01-25T00:27:49;101713.19;;;9.28;100.00
24230;BME280;12362;50.004;8.006;2024-01-25T00:30:15;101713.19;;;9.28;100.00
24230;BME280;12362;50.004;8.006;2024-01-25T00:32:40;101707.28;;;9.23;100.00
24230;BME280;12362;50.004;8.006;2024-01-25T00:35:06;101701.38;;;9.16;100.00
24230;BME280;12362;50.004;8.006;2024-01-25T00:37:36;101701.59;;;9.06;100.00
24230;BME280;12362;50.004;8.006;2024-01-25T00:40:01;101701.56;;;9.07;100.00
24230;BME280;12362;50.004;8.006;2024-01-25T00:42:28;101692.78;;;9.14;100.00
24230;BME280;12362;50.004;8.006;2024-01-25T00:44:56;101693.00;;;9.05;100.00
24230;BME280;12362;50.004;8.006;2024-01-25T00:47:22;101695.38;;;9.14;100.00
24230;BME280;12362;50.004;8.006;2024-01-25T00:49:47;101695.75;;;8.97;100.00
24230;BME280;12362;50.004;8.006;2024-01-25T00:52:13;101700.31;;;8.87;100.00
24230;BME280;12362;50.004;8.006;2024-01-25T00:54:39;101699.59;;;8.79;100.00
24230;BME280;12362;50.004;8.006;2024-01-25T00:57:18;101707.38;;;8.79;100.00
24230;BME280;12362;50.004;8.006;2024-01-25T00:59:43;101703.69;;;8.89;100.00
24230;BME280;12362;50.004;8.006;2024-01-25T01:02:11;101699.13;;;9.02;100.00
24230;BME280;12362;50.004;8.006;2024-01-25T01:04:38;101704.16;;;9.07;100.00
24230;BME280;12362;50.004;8.006;2024-01-25T01:07:04;101707.09;;;8.91;100.00
24230;BME280;12362;50.004;8.006;2024-01-25T01:09:30;101709.75;;;8.90;100.00
24230;BME280;12362;50.004;8.006;2024-01-25T01:11:55;101711.41;;;8.92;100.00
24230;BME280;12362;50.004;8.006;2024-01-25T01:14:21;101718.50;;;8.84;100.00
24230;BME280;12362;50.004;8.006;2024-01-25T01:16:47;101722.88;;;8.81;100.00
24230;BME280;12362;50.004;8.006;2024-01-25T01:19:12;101722.16;;;8.73;100.00
24230;BME280;12362;50.004;8.006;2024-01-25T01:21:38;101725.44;;;8.82;100.00
24230;BME280;12362;50.004;8.006;2024-01-25T01:24:06;101727.28;;;8.76;100.00
24230;BME280;12362;50.004;8.006;2024-01-25T01:26:32;101722.06;;;8.77;100.00
24230;BME280;12362;50.004;8.006;2024-01-25T01:28:57;101724.75;;;8.73;100.00
24230;BME280;12362;50.004;8.006;2024-01-25T01:31:23;101743.94;;;8.64;100.00
24230;BME280;12362;50.004;8.006;2024-01-25T01:33:48;101743.13;;;8.61;100.00
24230;BME280;12362;50.004;8.006;2024-01-25T01:36:14;101750.22;;;8.51;100.00
24230;BME280;12362;50.004;8.006;2024-01-25T01:38:40;101745.19;;;8.42;100.00
24230;BME280;12362;50.004;8.006;2024-01-25T01:41:05;101766.03;;;8.36;100.00
24230;BME280;12362;50.004;8.006;2024-01-25T01:43:31;101764.34;;;8.34;100.00
24230;BME280;12362;50.004;8.006;2024-01-25T01:46:48;101762.59;;;8.34;100.00
24230;BME280;12362;50.004;8.006;2024-01-25T01:48:48;101747.91;;;8.35;100.00
24230;BME280;12362;50.004;8.006;2024-01-25T01:51:14;101749.50;;;8.43;100.00
24230;BME280;12362;50.004;8.006;2024-01-25T01:53:39;101774.41;;;8.50;100.00
24230;BME280;12362;50.004;8.006;2024-01-25T01:56:06;101777.50;;;8.22;100.00
24230;BME280;12362;50.004;8.006;2024-01-25T01:58:32;101777.69;;;8.08;100.00
24230;BME280;12362;50.004;8.006;2024-01-25T02:00:59;101778.84;;;7.91;100.00
24230;BME280;12362;50.004;8.006;2024-01-25T02:03:25;101787.13;;;7.58;100.00
24230;BME280;12362;50.004;8.006;2024-01-25T02:05:50;101782.94;;;7.51;100.00
24230;BME280;12362;50.004;8.006;2024-01-25T02:08:16;101771.81;;;7.45;100.00
24230;BME280;12362;50.004;8.006;2024-01-25T02:10:41;101774.53;;;7.34;100.00
24230;BME280;12362;50.004;8.006;2024-01-25T02:13:08;101781.78;;;7.06;100.00
24230;BME280;12362;50.004;8.006;2024-01-25T02:15:34;101789.94;;;6.73;100.00
24230;BME280;12362;50.004;8.006;2024-01-25T02:17:59;101781.41;;;6.66;100.00
24230;BME280;12362;50.004;8.006;2024-01-25T02:20:25;101786.38;;;6.84;100.00
24230;BME280;12362;50.004;8.006;2024-01-25T02:22:50;101773.88;;;7.22;100.00
24230;BME280;12362;50.004;8.006;2024-01-25T02:25:16;101765.53;;;7.61;100.00
24230;BME280;12362;50.004;8.006;2024-01-25T02:27:41;101773.13;;;7.71;100.00
24230;BME280;12362;50.004;8.006;2024-01-25T02:30:07;101775.50;;;7.85;100.00
24230;BME280;12362;50.004;8.006;2024-01-25T02:32:33;101772.06;;;7.84;100.00
24230;BME280;12362;50.004;8.006;2024-01-25T02:34:59;101777.06;;;7.95;100.00
24230;BME280;12362;50.004;8.006;2024-01-25T02:37:24;101776.94;;;8.04;100.00
24230;BME280;12362;50.004;8.006;2024-01-25T02:39:51;101771.56;;;8.14;100.00
24230;BME280;12362;50.004;8.006;2024-01-25T02:42:17;101777.31;;;8.32;100.00
24230;BME280;12362;50.004;8.006;2024-01-25T02:44:43;101778.94;;;8.38;100.00
24230;BME280;12362;50.004;8.006;2024-01-25T02:47:09;101778.75;;;8.48;100.00
24230;BME280;12362;50.004;8.006;2024-01-25T02:49:34;101778.72;;;8.50;100.00
24230;BME280;12362;50.004;8.006;2024-01-25T02:52:00;101771.81;;;8.50;100.00
24230;BME280;12362;50.004;8.006;2024-01-25T02:54:26;101777.75;;;8.55;100.00
24230;BME280;12362;50.004;8.006;2024-01-25T02:56:51;101780.97;;;8.66;100.00
24230;BME280;12362;50.004;8.006;2024-01-25T02:59:17;101779.16;;;8.71;100.00
24230;BME280;12362;50.004;8.006;2024-01-25T03:01:43;101772.09;;;8.79;100.00
24230;BME280;12362;50.004;8.006;2024-01-25T03:04:10;101771.22;;;8.82;100.00
24230;BME280;12362;50.004;8.006;2024-01-25T03:06:36;101769.25;;;8.91;100.00
24230;BME280;12362;50.004;8.006;2024-01-25T03:09:01;101751.28;;;8.84;100.00
24230;BME280;12362;50.004;8.006;2024-01-25T03:11:30;101752.78;;;8.95;100.00
24230;BME280;12362;50.004;8.006;2024-01-25T03:13:56;101745.13;;;8.89;100.00
24230;BME280;12362;50.004;8.006;2024-01-25T03:16:22;101751.22;;;8.87;100.00
24230;BME280;12362;50.004;8.006;2024-01-25T03:18:47;101759.94;;;8.83;100.00
24230;BME280;12362;50.004;8.006;2024-01-25T03:21:13;101767.75;;;8.81;100.00
24230;BME280;12362;50.004;8.006;2024-01-25T03:23:39;101772.78;;;8.89;100.00
24230;BME280;12362;50.004;8.006;2024-01-25T03:26:04;101768.47;;;8.88;100.00
24230;BME280;12362;50.004;8.006;2024-01-25T03:28:30;101768.44;;;8.91;100.00
24230;BME280;12362;50.004;8.006;2024-01-25T03:30:55;101763.19;;;8.94;100.00
24230;BME280;12362;50.004;8.006;2024-01-25T03:33:21;101776.22;;;8.89;100.00
24230;BME280;12362;50.004;8.006;2024-01-25T03:35:47;101784.88;;;8.88;100.00
24230;BME280;12362;50.004;8.006;2024-01-25T03:38:12;101775.47;;;8.84;100.00
24230;BME280;12362;50.004;8.006;2024-01-25T03:40:39;101786.66;;;8.85;100.00
24230;BME280;12362;50.004;8.006;2024-01-25T03:43:05;101785.72;;;8.89;100.00
24230;BME280;12362;50.004;8.006;2024-01-25T03:45:30;101796.91;;;8.91;100.00
24230;BME280;12362;50.004;8.006;2024-01-25T03:47:58;101796.91;;;8.91;100.00
24230;BME280;12362;50.004;8.006;2024-01-25T03:50:23;101805.56;;;8.90;100.00
24230;BME280;12362;50.004;8.006;2024-01-25T03:52:49;101810.84;;;8.85;100.00
24230;BME280;12362;50.004;8.006;2024-01-25T03:55:14;101810.94;;;8.81;100.00
24230;BME280;12362;50.004;8.006;2024-01-25T03:57:40;101803.19;;;8.79;100.00
24230;BME280;12362;50.004;8.006;2024-01-25T04:00:08;101814.38;;;8.81;100.00
24230;BME280;12362;50.004;8.006;2024-01-25T04:02:34;101824.69;;;8.83;100.00
24230;BME280;12362;50.004;8.006;2024-01-25T04:04:59;101819.66;;;8.75;100.00
24230;BME280;12362;50.004;8.006;2024-01-25T04:07:25;101819.69;;;8.74;100.00
24230;BME280;12362;50.004;8.006;2024-01-25T04:09:50;101832.63;;;8.74;100.00
24230;BME280;12362;50.004;8.006;2024-01-25T04:12:16;101826.63;;;8.72;100.00
24230;BME280;12362;50.004;8.006;2024-01-25T04:14:41;101822.41;;;8.68;100.00
24230;BME280;12362;50.004;8.006;2024-01-25T04:17:07;101833.63;;;8.67;100.00
24230;BME280;12362;50.004;8.006;2024-01-25T04:19:33;101829.41;;;8.61;100.00
24230;BME280;12362;50.004;8.006;2024-01-25T04:21:58;101825.13;;;8.60;100.00
24230;BME280;12362;50.004;8.006;2024-01-25T04:24:24;101835.47;;;8.59;100.00
24230;BME280;12362;50.004;8.006;2024-01-25T04:26:49;101830.38;;;8.56;100.00
24230;BME280;12362;50.004;8.006;2024-01-25T04:29:15;101831.34;;;8.49;100.00
24230;BME280;12362;50.004;8.006;2024-01-25T04:31:44;101828.84;;;8.46;100.00
24230;BME280;12362;50.004;8.006;2024-01-25T04:34:12;101828.84;;;8.46;100.00
24230;BME280;12362;50.004;8.006;2024-01-25T04:36:38;101820.28;;;8.41;100.00
24230;BME280;12362;50.004;8.006;2024-01-25T04:39:04;101835.91;;;8.35;100.00
24230;BME280;12362;50.004;8.006;2024-01-25T04:41:30;101842.91;;;8.30;100.00
24230;BME280;12362;50.004;8.006;2024-01-25T04:43:55;101841.31;;;8.23;100.00
24230;BME280;12362;50.004;8.006;2024-01-25T04:46:20;101834.50;;;8.13;100.00
24230;BME280;12362;50.004;8.006;2024-01-25T04:48:46;101835.47;;;8.07;100.00
24230;BME280;12362;50.004;8.006;2024-01-25T04:51:19;101832.09;;;8.04;100.00
24230;BME280;12362;50.004;8.006;2024-01-25T04:53:48;101833.00;;;8.00;100.00
24230;BME280;12362;50.004;8.006;2024-01-25T04:56:13;101838.19;;;7.99;100.00
24230;BME280;12362;50.004;8.006;2024-01-25T04:58:39;101833.06;;;7.97;100.00
24230;BME280;12362;50.004;8.006;2024-01-25T05:01:04;101841.66;;;7.99;100.00
24230;BME280;12362;50.004;8.006;2024-01-25T05:03:32;101845.06;;;8.01;100.00
24230;BME280;12362;50.004;8.006;2024-01-25T05:05:58;101845.06;;;8.01;100.00
24230;BME280;12362;50.004;8.006;2024-01-25T05:08:24;101858.84;;;8.00;100.00
24230;BME280;12362;50.004;8.006;2024-01-25T05:10:49;101859.81;;;7.96;100.00
24230;BME280;12362;50.004;8.006;2024-01-25T05:13:15;101863.22;;;7.98;100.00
24230;BME280;12362;50.004;8.006;2024-01-25T05:15:41;101877.72;;;8.07;100.00
24230;BME280;12362;50.004;8.006;2024-01-25T05:18:06;101882.78;;;8.14;100.00
24230;BME280;12362;50.004;8.006;2024-01-25T05:20:32;101891.38;;;8.19;100.00
24230;BME280;12362;50.004;8.006;2024-01-25T05:23:00;101897.41;;;8.21;100.00
24230;BME280;12362;50.004;8.006;2024-01-25T05:25:25;101906.88;;;8.20;100.00
24230;BME280;12362;50.004;8.006;2024-01-25T05:27:54;101920.75;;;8.16;100.00
24230;BME280;12362;50.004;8.006;2024-01-25T05:30:21;101924.22;;;8.15;100.00
24230;BME280;12362;50.004;8.006;2024-01-25T05:32:46;101914.72;;;8.14;100.00
24230;BME280;12362;50.004;8.006;2024-01-25T05:35:14;101929.38;;;8.12;100.00
24230;BME280;12362;50.004;8.006;2024-01-25T05:37:39;101928.59;;;8.09;100.00
24230;BME280;12362;50.004;8.006;2024-01-25T05:40:05;101916.53;;;8.07;100.00
24230;BME280;12362;50.004;8.006;2024-01-25T05:42:31;101926.09;;;8.02;100.00
24230;BME280;12362;50.004;8.006;2024-01-25T05:44:57;101930.47;;;7.97;100.00
24230;BME280;12362;50.004;8.006;2024-01-25T05:47:23;101924.44;;;7.95;100.00
24230;BME280;12362;50.004;8.006;2024-01-25T05:49:49;101937.38;;;7.96;100.00
24230;BME280;12362;50.004;8.006;2024-01-25T05:52:14;101943.44;;;7.94;100.00
24230;BME280;12362;50.004;8.006;2024-01-25T05:54:40;101939.19;;;7.88;100.00
24230;BME280;12362;50.004;8.006;2024-01-25T05:57:05;101940.09;;;7.86;100.00
24230;BME280;12362;50.004;8.006;2024-01-25T05:59:31;101938.38;;;7.86;100.00
24230;BME280;12362;50.004;8.006;2024-01-25T06:01:59;101931.47;;;7.87;100.00
24230;BME280;12362;50.004;8.006;2024-01-25T06:04:24;101931.44;;;7.88;100.00
24230;BME280;12362;50.004;8.006;2024-01-25T06:06:53;101935.66;;;7.94;100.00
24230;BME280;12362;50.004;8.006;2024-01-25T06:09:23;101935.78;;;7.88;100.00
24230;BME280;12362;50.004;8.006;2024-01-25T06:11:50;101930.69;;;7.80;100.00
24230;BME280;12362;50.004;8.006;2024-01-25T06:14:16;101932.50;;;7.75;100.00
24230;BME280;12362;50.004;8.006;2024-01-25T06:16:42;101929.91;;;7.74;100.00
24230;BME280;12362;50.004;8.006;2024-01-25T06:19:08;101932.53;;;7.71;100.00
24230;BME280;12362;50.004;8.006;2024-01-25T06:21:33;101932.59;;;7.66;100.00
24230;BME280;12362;50.004;8.006;2024-01-25T06:24:01;101936.91;;;7.64;100.00
24230;BME280;12362;50.004;8.006;2024-01-25T06:26:30;101938.75;;;7.56;100.00
24230;BME280;12362;50.004;8.006;2024-01-25T06:28:56;101941.47;;;7.46;100.00
24230;BME280;12362;50.004;8.006;2024-01-25T06:31:22;101931.28;;;7.32;100.00
24230;BME280;12362;50.004;8.006;2024-01-25T06:33:48;101938.28;;;7.21;100.00
24230;BME280;12362;50.004;8.006;2024-01-25T06:36:16;101927.19;;;7.14;100.00
24230;BME280;12362;50.004;8.006;2024-01-25T06:38:42;101939.28;;;7.10;100.00
24230;BME280;12362;50.004;8.006;2024-01-25T06:41:08;101936.94;;;6.86;100.00
24230;BME280;12362;50.004;8.006;2024-01-25T06:43:34;101935.50;;;6.51;100.00
24230;BME280;12362;50.004;8.006;2024-01-25T06:45:59;101942.50;;;6.38;100.00
24230;BME280;12362;50.004;8.006;2024-01-25T06:48:25;101952.16;;;6.08;100.00
24230;BME280;12362;50.004;8.006;2024-01-25T06:50:50;101952.28;;;5.86;100.00
24230;BME280;12362;50.004;8.006;2024-01-25T06:53:17;101949.72;;;5.78;100.00
24230;BME280;12362;50.004;8.006;2024-01-25T06:55:42;101954.88;;;5.72;100.00
24230;BME280;12362;50.004;8.006;2024-01-25T06:58:08;101962.63;;;5.63;100.00
24230;BME280;12362;50.004;8.006;2024-01-25T07:00:33;101964.50;;;5.26;100.00
24230;BME280;12362;50.004;8.006;2024-01-25T07:02:59;101964.50;;;5.11;100.00
24230;BME280;12362;50.004;8.006;2024-01-25T07:05:25;101973.97;;;5.03;100.00
24230;BME280;12362;50.004;8.006;2024-01-25T07:07:52;101973.09;;;4.92;100.00
24230;BME280;12362;50.004;8.006;2024-01-25T07:10:17;101969.69;;;4.78;100.00
24230;BME280;12362;50.004;8.006;2024-01-25T07:12:42;101970.53;;;4.75;100.00
24230;BME280;12362;50.004;8.006;2024-01-25T07:15:08;101967.97;;;4.65;100.00
24230;BME280;12362;50.004;8.006;2024-01-25T07:17:33;101973.94;;;4.50;100.00
24230;BME280;12362;50.004;8.006;2024-01-25T07:19:59;101967.09;;;4.35;100.00
24230;BME280;12362;50.004;8.006;2024-01-25T07:22:24;101969.69;;;4.38;100.00
24230;BME280;12362;50.004;8.006;2024-01-25T07:24:50;101977.38;;;4.42;100.00
24230;BME280;12362;50.004;8.006;2024-01-25T07:27:15;101976.50;;;4.46;100.00
24230;BME280;12362;50.004;8.006;2024-01-25T07:29:43;101986.81;;;4.52;100.00
24230;BME280;12362;50.004;8.006;2024-01-25T07:32:13;101987.69;;;4.58;100.00
24230;BME280;12362;50.004;8.006;2024-01-25T07:34:38;101979.97;;;4.64;100.00
24230;BME280;12362;50.004;8.006;2024-01-25T07:37:04;101985.97;;;4.66;100.00
24230;BME280;12362;50.004;8.006;2024-01-25T07:39:29;101991.13;;;4.74;100.00
24230;BME280;12362;50.004;8.006;2024-01-25T07:41:55;101978.25;;;4.66;100.00
24230;BME280;12362;50.004;8.006;2024-01-25T07:44:20;101981.69;;;4.73;100.00
24230;BME280;12362;50.004;8.006;2024-01-25T07:46:46;101982.56;;;4.78;100.00
24230;BME280;12362;50.004;8.006;2024-01-25T07:49:12;101973.97;;;4.85;100.00
24230;BME280;12362;50.004;8.006;2024-01-25T07:51:38;101973.09;;;4.93;100.00
24230;BME280;12362;50.004;8.006;2024-01-25T07:54:03;101973.09;;;5.01;100.00
24230;BME280;12362;50.004;8.006;2024-01-25T07:56:29;101972.22;;;5.03;100.00
24230;BME280;12362;50.004;8.006;2024-01-25T07:58:55;101972.25;;;5.02;100.00
24230;BME280;12362;50.004;8.006;2024-01-25T08:01:20;101969.66;;;5.11;100.00
24230;BME280;12362;50.004;8.006;2024-01-25T08:03:46;101973.06;;;5.32;100.00
24230;BME280;12362;50.004;8.006;2024-01-25T08:06:12;101976.44;;;5.50;100.00
24230;BME280;12362;50.004;8.006;2024-01-25T08:08:37;101969.50;;;5.63;100.00
24230;BME280;12362;50.004;8.006;2024-01-25T08:11:02;101972.09;;;5.66;100.00
24230;BME280;12362;50.004;8.006;2024-01-25T08:13:29;101973.81;;;5.67;100.00
24230;BME280;12362;50.004;8.006;2024-01-25T08:15:55;101964.34;;;5.78;100.00
24230;BME280;12362;50.004;8.006;2024-01-25T08:18:21;101971.94;;;6.00;100.00
24230;BME280;12362;50.004;8.006;2024-01-25T08:20:49;101973.47;;;6.32;100.00
24230;BME280;12362;50.004;8.006;2024-01-25T08:23:16;101975.88;;;6.58;100.00
24230;BME280;12362;50.004;8.006;2024-01-25T08:25:42;101969.72;;;6.75;100.00
24230;BME280;12362;50.004;8.006;2024-01-25T08:28:10;101970.41;;;6.95;100.00
24230;BME280;12362;50.004;8.006;2024-01-25T08:30:36;101972.00;;;7.07;100.00
24230;BME280;12362;50.004;8.006;2024-01-25T08:33:01;101971.94;;;7.14;100.00
24230;BME280;12362;50.004;8.006;2024-01-25T08:35:27;101975.31;;;7.20;100.00
24230;BME280;12362;50.004;8.006;2024-01-25T08:37:52;101963.97;;;7.35;100.00
24230;BME280;12362;50.004;8.006;2024-01-25T08:40:18;101972.56;;;7.38;100.00
24230;BME280;12362;50.004;8.006;2024-01-25T08:42:43;101977.53;;;7.53;100.00
24230;BME280;12362;50.004;8.006;2024-01-25T08:45:09;101980.00;;;7.65;100.00
24230;BME280;12362;50.004;8.006;2024-01-25T08:47:36;101972.97;;;7.78;100.00
24230;BME280;12362;50.004;8.006;2024-01-25T08:50:01;101978.03;;;7.84;100.00
24230;BME280;12362;50.004;8.006;2024-01-25T08:52:27;101981.44;;;7.89;100.00
24230;BME280;12362;50.004;8.006;2024-01-25T08:54:52;101985.72;;;7.91;100.00
24230;BME280;12362;50.004;8.006;2024-01-25T08:57:18;101983.00;;;8.00;100.00
24230;BME280;12362;50.004;8.006;2024-01-25T08:59:43;101984.66;;;8.07;100.00
24230;BME280;12362;50.004;8.006;2024-01-25T09:02:09;101995.75;;;8.15;100.00
24230;BME280;12362;50.004;8.006;2024-01-25T09:04:35;101984.44;;;8.23;100.00
24230;BME280;12362;50.004;8.006;2024-01-25T09:07:01;101988.63;;;8.33;100.00
24230;BME280;12362;50.004;8.006;2024-01-25T09:09:27;101980.78;;;8.39;100.00
24230;BME280;12362;50.004;8.006;2024-01-25T09:11:52;101983.19;;;8.50;100.00
24230;BME280;12362;50.004;8.006;2024-01-25T09:14:19;101985.81;;;8.48;100.00
24230;BME280;12362;50.004;8.006;2024-01-25T09:16:44;101985.63;;;8.59;100.00
24230;BME280;12362;50.004;8.006;2024-01-25T09:19:10;101984.63;;;8.67;100.00
24230;BME280;12362;50.004;8.006;2024-01-25T09:21:38;101980.31;;;8.69;100.00
24230;BME280;12362;50.004;8.006;2024-01-25T09:24:04;101975.78;;;8.82;100.00
24230;BME280;12362;50.004;8.006;2024-01-25T09:26:29;101980.78;;;8.94;100.00
24230;BME280;12362;50.004;8.006;2024-01-25T09:28:55;101977.97;;;9.04;100.00
24230;BME280;12362;50.004;8.006;2024-01-25T09:31:20;101977.97;;;9.04;100.00
24230;BME280;12362;50.004;8.006;2024-01-25T09:33:46;101974.34;;;9.14;100.00
24230;BME280;12362;50.004;8.006;2024-01-25T09:36:11;101983.78;;;9.18;100.00
24230;BME280;12362;50.004;8.006;2024-01-25T09:38:37;101971.41;;;9.33;100.00
24230;BME280;12362;50.004;8.006;2024-01-25T09:41:02;101973.94;;;9.36;100.00
24230;BME280;12362;50.004;8.006;2024-01-25T09:43:28;101973.72;;;9.48;100.00
24230;BME280;12362;50.004;8.006;2024-01-25T09:45:54;101967.41;;;9.60;100.00
24230;BME280;12362;50.004;8.006;2024-01-25T09:48:20;101973.31;;;9.68;100.00
24230;BME280;12362;50.004;8.006;2024-01-25T09:50:47;101971.38;;;9.79;100.00
24230;BME280;12362;50.004;8.006;2024-01-25T09:53:22;101972.06;;;9.87;100.00
24230;BME280;12362;50.004;8.006;2024-01-25T09:56:08;101981.50;;;9.89;100.00
24230;BME280;12362;50.004;8.006;2024-01-25T09:58:39;101968.25;;;10.05;100.00
24230;BME280;12362;50.004;8.006;2024-01-25T10:01:08;101977.59;;;10.12;100.00
24230;BME280;12362;50.004;8.006;2024-01-25T10:03:34;101967.75;;;10.26;100.00
24230;BME280;12362;50.004;8.006;2024-01-25T10:06:00;101966.66;;;10.36;100.00
24230;BME280;12362;50.004;8.006;2024-01-25T10:08:26;101971.41;;;10.54;100.00
24230;BME280;12362;50.004;8.006;2024-01-25T10:10:51;101971.78;;;10.39;100.00
24230;BME280;12362;50.004;8.006;2024-01-25T10:13:19;101968.63;;;10.62;100.00
24230;BME280;12362;50.004;8.006;2024-01-25T10:15:45;101979.47;;;10.42;100.00
24230;BME280;12362;50.004;8.006;2024-01-25T10:18:13;101978.03;;;10.31;100.00
24230;BME280;12362;50.004;8.006;2024-01-25T10:20:39;101995.59;;;10.58;100.00
24230;BME280;12362;50.004;8.006;2024-01-25T10:23:08;102002.78;;;10.47;100.00
24230;BME280;12362;50.004;8.006;2024-01-25T10:25:37;102005.09;;;10.57;100.00
24230;BME280;12362;50.004;8.006;2024-01-25T10:28:04;102002.66;;;10.51;100.00
24230;BME280;12362;50.004;8.006;2024-01-25T10:30:35;101993.47;;;10.73;100.00
24230;BME280;12362;50.004;8.006;2024-01-25T10:33:01;101974.06;;;10.87;100.00
24230;BME280;12362;50.004;8.006;2024-01-25T10:35:28;101976.06;;;10.77;100.00
24230;BME280;12362;50.004;8.006;2024-01-25T10:37:54;101965.91;;;10.66;100.00
24230;BME280;12362;50.004;8.006;2024-01-25T10:40:20;101965.25;;;10.94;100.00
24230;BME280;12362;50.004;8.006;2024-01-25T10:42:46;101959.81;;;11.02;100.00
24230;BME280;12362;50.004;8.006;2024-01-25T10:45:12;101966.53;;;11.10;100.00
24230;BME280;12362;50.004;8.006;2024-01-25T10:47:38;101962.00;;;11.50;100.00
24230;BME280;12362;50.004;8.006;2024-01-25T10:50:07;101961.94;;;11.53;100.00
24230;BME280;12362;50.004;8.006;2024-01-25T10:52:39;101967.59;;;11.67;100.00
24230;BME280;12362;50.004;8.006;2024-01-25T10:55:05;101954.28;;;11.77;100.00
24230;BME280;12362;50.004;8.006;2024-01-25T10:57:38;101963.06;;;11.74;100.00
24230;BME280;12362;50.004;8.006;2024-01-25T11:00:09;101962.63;;;11.88;100.00
24230;BME280;12362;50.004;8.006;2024-01-25T11:02:36;101954.44;;;12.02;100.00
24230;BME280;12362;50.004;8.006;2024-01-25T11:05:01;101954.00;;;11.88;100.00
24230;BME280;12362;50.004;8.006;2024-01-25T11:07:28;101944.13;;;11.99;100.00
24230;BME280;12362;50.004;8.006;2024-01-25T11:09:54;101935.41;;;12.00;100.00
24230;BME280;12362;50.004;8.006;2024-01-25T11:12:20;101931.78;;;12.04;100.00
24230;BME280;12362;50.004;8.006;2024-01-25T11:14:54;101927.91;;;12.17;100.00
24230;BME280;12362;50.004;8.006;2024-01-25T11:17:21;101922.03;;;12.10;100.00
24230;BME280;12362;50.004;8.006;2024-01-25T11:19:50;101921.59;;;11.98;100.00
24230;BME280;12362;50.004;8.006;2024-01-25T11:22:16;101919.47;;;11.81;100.00
24230;BME280;12362;50.004;8.006;2024-01-25T11:24:42;101909.66;;;12.44;100.00
24230;BME280;12362;50.004;8.006;2024-01-25T11:27:09;101896.25;;;12.56;100.00
24230;BME280;12362;50.004;8.006;2024-01-25T11:29:35;101899.16;;;12.99;99.94
24230;BME280;12362;50.004;8.006;2024-01-25T11:32:04;101889.97;;;13.36;92.05
24230;BME280;12362;50.004;8.006;2024-01-25T11:34:30;101884.38;;;13.69;90.26
24230;BME280;12362;50.004;8.006;2024-01-25T11:36:57;101886.72;;;13.30;90.61
24230;BME280;12362;50.004;8.006;2024-01-25T11:39:25;101892.41;;;12.93;96.93
24230;BME280;12362;50.004;8.006;2024-01-25T11:41:51;101880.69;;;13.05;94.40
24230;BME280;12362;50.004;8.006;2024-01-25T11:44:17;101878.41;;;13.20;95.67
24230;BME280;12362;50.004;8.006;2024-01-25T11:46:42;101873.44;;;13.81;88.35
24230;BME280;12362;50.004;8.006;2024-01-25T11:49:08;101888.06;;;13.17;90.18
24230;BME280;12362;50.004;8.006;2024-01-25T11:51:33;101893.22;;;12.94;93.61
24230;BME280;12362;50.004;8.006;2024-01-25T11:53:59;101885.38;;;12.95;94.96
24230;BME280;12362;50.004;8.006;2024-01-25T11:56:31;101886.53;;;12.61;98.50
24230;BME280;12362;50.004;8.006;2024-01-25T11:58:58;101878.25;;;12.74;97.91
24230;BME280;12362;50.004;8.006;2024-01-25T12:01:24;101879.03;;;12.52;99.63
24230;BME280;12362;50.004;8.006;2024-01-25T12:03:50;101881.63;;;12.52;98.51
24230;BME280;12362;50.004;8.006;2024-01-25T12:06:17;101875.13;;;12.65;99.16
24230;BME280;12362;50.004;8.006;2024-01-25T12:08:44;101866.19;;;13.21;94.55
24230;BME280;12362;50.004;8.006;2024-01-25T12:11:10;101852.94;;;13.50;91.42
24230;BME280;12362;50.004;8.006;2024-01-25T12:13:39;101855.34;;;13.77;91.42
24230;BME280;12362;50.004;8.006;2024-01-25T12:16:06;101836.59;;;13.89;87.34
24230;BME280;12362;50.004;8.006;2024-01-25T12:18:31;101843.25;;;13.74;89.29
24230;BME280;12362;50.004;8.006;2024-01-25T12:21:04;101837.16;;;13.53;88.56
24230;BME280;12362;50.004;8.006;2024-01-25T12:23:34;101849.72;;;12.96;91.11
24230;BME280;12362;50.004;8.006;2024-01-25T12:26:05;101853.22;;;12.69;95.68
24230;BME280;12362;50.004;8.006;2024-01-25T12:28:31;101850.78;;;12.90;96.40
24230;BME280;12362;50.004;8.006;2024-01-25T12:30:58;101841.38;;;12.85;97.20
24230;BME280;12362;50.004;8.006;2024-01-25T12:33:25;101845.56;;;12.90;96.38
24230;BME280;12362;50.004;8.006;2024-01-25T12:35:50;101838.16;;;13.03;97.52
24230;BME280;12362;50.004;8.006;2024-01-25T12:38:16;101835.22;;;12.89;94.95
24230;BME280;12362;50.004;8.006;2024-01-25T12:40:43;101823.97;;;12.85;97.71
24230;BME280;12362;50.004;8.006;2024-01-25T12:43:09;101827.72;;;12.78;97.82